world map with UPN marked

UPN - Airport

This information may not be accurate or current and is not valid for navigation or flight planning. No warranty of fitness for any purpose is made or implied.

flag of Michoacán de Ocampoflag of México

Donate via PayPal

Additional information is available on the NEW Great Circle Mapper

Location
City:  Uruapan, Michoacán de Ocampo, México
Name:Licenciado y General Ignacio López Rayón
ICAO / IATA:MMPN / UPN

Details
Type:Airport (Aerodrome, Airfield)
Latitude:19°23'48"N (19.396692)
Longitude:102°02'21"W (-102.039055)
Datum:WGS 1984
Elevation:5258 ft (1603 m)
Runways:1
Longest:7874 × 148 ft (2400 × 45 m)

Time
Timezone:UTC+28:08 (DST+31:08)
Local Time:

Weather
METAR:MMPN  041340Z 00000KT 15SM SKC 09/06 A3014 RMK HZY AC
TAF:MMPN  (expired)

Related Locations
Nearby:
Farthest:NKW: 11523 mi / 18544 km
Diego Garcia, Chagos Archipelago, IO

Find:

   beyond  
but within

Other Information
Maps:
Sources:

  


 


Great Circle Mapper   Great Circle Mapper
Great Circle Mapper FAQ   Great Circle Mapper FAQ
  Karl's Home Page
KLS²   KLS² Home
   GC on Facebook
Airlines of the World   Airlines of the World
Donate via PayPal


Copyright © 2004-2019, Karl L. Swartz. All rights reserved.
All trademarks mentioned herein belong to their respective owners.

Please see credits for attribution and copyright information.

Karl Swartz <karl@kls2.com>
  Powered by FreeBSD
Valid HTML 4.01!
Labeled with ICRA
hCard Microformat
Geo Microformat